Time,TemperatureF,DewpointF,PressureIn,WindDirection,WindDirectionDegrees,WindSpeedMPH,WindSpeedGustMPH,Humidity,HourlyPrecipIn,Conditions,Clouds,dailyrainin,SoftwareType,DateUTC
2013-01-13 00:00:00,50.0,47.8,30.03,ENE,71,0.0,0.0,92,0.00,,,0.00,Wunderground v.1.15,2013-01-13 05:00:00,
2013-01-13 00:05:00,49.9,47.7,30.03,ENE,71,0.0,0.0,92,0.00,,,0.00,Wunderground v.1.15,2013-01-13 05:05:00,
2013-01-13 00:10:00,49.7,47.5,30.03,ENE,71,0.0,0.0,92,0.00,,,0.00,Wunderground v.1.15,2013-01-13 05:10:00,
2013-01-13 00:15:00,49.6,47.4,30.03,ENE,71,0.0,0.0,92,0.00,,,0.00,Wunderground v.1.15,2013-01-13 05:15:00,
2013-01-13 00:20:00,49.5,47.6,30.03,ENE,71,0.0,1.0,93,0.00,,,0.00,Wunderground v.1.15,2013-01-13 05:20:00,
2013-01-13 00:30:00,49.4,47.5,30.03,ENE,71,0.0,0.0,93,0.00,,,0.00,Wunderground v.1.15,2013-01-13 05:30:00,
2013-01-13 00:40:00,49.2,47.3,30.02,ENE,71,0.0,0.0,93,0.00,,,0.00,Wunderground v.1.15,2013-01-13 05:40:00,
2013-01-13 00:45:00,49.2,47.3,30.02,ENE,71,0.0,0.0,93,0.00,,,0.00,Wunderground v.1.15,2013-01-13 05:45:00,
2013-01-13 00:55:00,49.0,47.1,30.02,ENE,71,0.0,0.0,93,0.00,,,0.00,Wunderground v.1.15,2013-01-13 05:55:00,
2013-01-13 01:05:00,49.0,47.3,30.02,ENE,71,0.0,0.0,94,0.00,,,0.00,Wunderground v.1.15,2013-01-13 06:05:00,
2013-01-13 01:15:00,48.9,47.2,30.02,ENE,71,0.0,0.0,94,0.00,,,0.00,Wunderground v.1.15,2013-01-13 06:15:00,
2013-01-13 01:20:00,48.9,47.2,30.02,ENE,71,0.0,0.0,94,0.00,,,0.00,Wunderground v.1.15,2013-01-13 06:20:00,
2013-01-13 01:30:00,48.8,47.2,30.01,ENE,71,0.0,0.0,94,0.00,,,0.00,Wunderground v.1.15,2013-01-13 06:30:00,
2013-01-13 01:40:00,48.8,47.2,30.01,ENE,71,0.0,0.0,94,0.00,,,0.00,Wunderground v.1.15,2013-01-13 06:40:00,
2013-01-13 01:45:00,48.8,47.2,30.01,ENE,71,0.0,0.0,94,0.00,,,0.00,Wunderground v.1.15,2013-01-13 06:45:00,
2013-01-13 01:55:00,48.8,47.2,30.01,ENE,71,0.0,0.0,94,0.00,,,0.00,Wunderground v.1.15,2013-01-13 06:55:00,
2013-01-13 02:05:00,48.7,46.8,30.01,ENE,71,0.0,0.0,93,0.00,,,0.00,Wunderground v.1.15,2013-01-13 07:05:00,
2013-01-13 02:15:00,48.6,46.7,30.01,ENE,71,0.0,0.0,93,0.00,,,0.00,Wunderground v.1.15,2013-01-13 07:15:00,
2013-01-13 02:20:00,48.4,46.8,30.01,ENE,71,0.0,0.0,94,0.00,,,0.00,Wunderground v.1.15,2013-01-13 07:20:00,
2013-01-13 02:30:00,48.3,46.4,30.00,ENE,71,0.0,0.0,93,0.00,,,0.00,Wunderground v.1.15,2013-01-13 07:30:00,
2013-01-13 02:40:00,48.2,46.6,30.00,ENE,71,0.0,0.0,94,0.00,,,0.00,Wunderground v.1.15,2013-01-13 07:40:00,
2013-01-13 02:50:00,48.2,46.6,30.00,ENE,71,0.0,0.0,94,0.00,,,0.00,Wunderground v.1.15,2013-01-13 07:50:00,
2013-01-13 03:00:00,48.2,46.6,30.00,ENE,71,0.0,0.0,94,0.00,,,0.00,Wunderground v.1.15,2013-01-13 08:00:00,
2013-01-13 03:05:00,48.2,46.6,29.99,ENE,71,0.0,0.0,94,0.00,,,0.00,Wunderground v.1.15,2013-01-13 08:05:00,
2013-01-13 03:15:00,48.1,46.2,29.99,ENE,71,0.0,0.0,93,0.00,,,0.00,Wunderground v.1.15,2013-01-13 08:15:00,
2013-01-13 03:25:00,47.9,46.0,29.98,ENE,71,0.0,0.0,93,0.00,,,0.00,Wunderground v.1.15,2013-01-13 08:25:00,
2013-01-13 03:35:00,47.7,45.8,29.97,ENE,71,0.0,0.0,93,0.00,,,0.00,Wunderground v.1.15,2013-01-13 08:35:00,
2013-01-13 03:45:00,47.4,45.5,29.97,ENE,71,0.0,0.0,93,0.00,,,0.00,Wunderground v.1.15,2013-01-13 08:45:00,
2013-01-13 03:55:00,47.3,45.7,29.97,ENE,71,0.0,0.0,94,0.00,,,0.00,Wunderground v.1.15,2013-01-13 08:55:00,
2013-01-13 04:00:00,47.2,45.6,29.97,ENE,70,0.0,0.0,94,0.00,,,0.00,Wunderground v.1.15,2013-01-13 09:00:00,
2013-01-13 04:05:00,47.0,45.4,29.97,ENE,71,0.0,0.0,94,0.00,,,0.00,Wunderground v.1.15,2013-01-13 09:05:00,
2013-01-13 04:15:00,46.9,45.3,29.95,ENE,71,0.0,0.0,94,0.00,,,0.00,Wunderground v.1.15,2013-01-13 09:15:00,
2013-01-13 04:25:00,47.0,45.6,29.95,ENE,71,0.0,0.0,95,0.00,,,0.00,Wunderground v.1.15,2013-01-13 09:25:00,
2013-01-13 04:35:00,46.7,45.1,29.94,ENE,71,0.0,0.0,94,0.00,,,0.00,Wunderground v.1.15,2013-01-13 09:35:00,
2013-01-13 04:45:00,46.3,44.7,29.95,ENE,71,0.0,0.0,94,0.00,,,0.00,Wunderground v.1.15,2013-01-13 09:45:00,
2013-01-13 04:55:00,45.8,44.2,29.94,ENE,71,0.0,0.0,94,0.00,,,0.00,Wunderground v.1.15,2013-01-13 09:55:00,
2013-01-13 05:05:00,45.8,44.4,29.94,ENE,71,0.0,0.0,95,0.00,,,0.00,Wunderground v.1.15,2013-01-13 10:05:00,
2013-01-13 05:15:00,45.7,44.4,29.94,ENE,71,0.0,0.0,95,0.00,,,0.00,Wunderground v.1.15,2013-01-13 10:15:00,
2013-01-13 05:25:00,45.7,44.4,29.94,ENE,71,0.0,0.0,95,0.00,,,0.00,Wunderground v.1.15,2013-01-13 10:25:00,
2013-01-13 05:35:00,45.5,44.2,29.94,ENE,71,0.0,0.0,95,0.00,,,0.00,Wunderground v.1.15,2013-01-13 10:35:00,
2013-01-13 05:45:00,45.1,43.8,29.94,ENE,71,0.0,0.0,95,0.00,,,0.00,Wunderground v.1.15,2013-01-13 10:45:00,
2013-01-13 05:50:00,44.9,43.3,29.94,ENE,71,0.0,0.0,94,0.00,,,0.00,Wunderground v.1.15,2013-01-13 10:50:00,
2013-01-13 06:00:00,44.6,43.3,29.94,ENE,71,0.0,0.0,95,0.00,,,0.00,Wunderground v.1.15,2013-01-13 11:00:00,
2013-01-13 06:05:00,44.6,43.3,29.94,ENE,71,0.0,0.0,95,0.00,,,0.00,Wunderground v.1.15,2013-01-13 11:05:00,
2013-01-13 06:15:00,44.6,43.3,29.95,ENE,71,0.0,1.0,95,0.00,,,0.00,Wunderground v.1.15,2013-01-13 11:15:00,
2013-01-13 06:25:00,44.2,42.9,29.95,ENE,71,0.0,0.0,95,0.00,,,0.00,Wunderground v.1.15,2013-01-13 11:25:00,
2013-01-13 06:35:00,43.8,42.5,29.95,ENE,71,0.0,0.0,95,0.00,,,0.00,Wunderground v.1.15,2013-01-13 11:35:00,
2013-01-13 06:45:00,43.5,42.2,29.95,ENE,71,0.0,1.0,95,0.00,,,0.00,Wunderground v.1.15,2013-01-13 11:45:00,
2013-01-13 06:50:00,43.3,42.0,29.95,ENE,71,0.0,0.0,95,0.00,,,0.00,Wunderground v.1.15,2013-01-13 11:50:00,
2013-01-13 07:00:00,43.1,41.8,29.96,ENE,71,0.0,0.0,95,0.00,,,0.00,Wunderground v.1.15,2013-01-13 12:00:00,
2013-01-13 07:05:00,43.1,42.0,29.95,ENE,71,1.0,1.0,96,0.00,,,0.00,Wunderground v.1.15,2013-01-13 12:05:00,
2013-01-13 07:15:00,43.0,41.9,29.96,ENE,71,0.0,0.0,96,0.00,,,0.00,Wunderground v.1.15,2013-01-13 12:15:00,
2013-01-13 07:20:00,42.9,41.8,29.97,ENE,71,0.0,0.0,96,0.00,,,0.00,Wunderground v.1.15,2013-01-13 12:20:00,
2013-01-13 07:30:00,42.8,41.7,29.97,ENE,71,0.0,0.0,96,0.00,,,0.00,Wunderground v.1.15,2013-01-13 12:30:00,
2013-01-13 07:40:00,42.9,41.8,29.97,ENE,71,0.0,0.0,96,0.00,,,0.00,Wunderground v.1.15,2013-01-13 12:40:00,
2013-01-13 07:50:00,43.0,41.9,29.98,ENE,71,0.0,0.0,96,0.00,,,0.00,Wunderground v.1.15,2013-01-13 12:50:00,
2013-01-13 08:00:00,43.0,41.9,29.98,ENE,71,0.0,0.0,96,0.00,,,0.00,Wunderground v.1.15,2013-01-13 13:00:00,
2013-01-13 08:05:00,43.2,42.1,29.99,ENE,71,0.0,0.0,96,0.00,,,0.00,Wunderground v.1.15,2013-01-13 13:05:00,
2013-01-13 08:15:00,43.4,42.3,29.99,ENE,71,0.0,0.0,96,0.00,,,0.00,Wunderground v.1.15,2013-01-13 13:15:00,
2013-01-13 08:20:00,43.6,42.5,29.99,ENE,71,0.0,1.0,96,0.00,,,0.00,Wunderground v.1.15,2013-01-13 13:20:00,
2013-01-13 08:30:00,43.7,42.6,29.99,ENE,71,0.0,0.0,96,0.00,,,0.00,Wunderground v.1.15,2013-01-13 13:30:00,
2013-01-13 08:40:00,43.8,42.7,30.00,ENE,71,0.0,0.0,96,0.00,,,0.00,Wunderground v.1.15,2013-01-13 13:40:00,
2013-01-13 08:50:00,43.9,42.8,30.00,ENE,71,0.0,0.0,96,0.00,,,0.00,Wunderground v.1.15,2013-01-13 13:50:00,
2013-01-13 09:00:00,44.1,43.3,30.00,ENE,71,0.0,0.0,97,0.00,,,0.00,Wunderground v.1.15,2013-01-13 14:00:00,
2013-01-13 09:05:00,44.4,43.6,30.00,ENE,71,0.0,0.0,97,0.00,,,0.00,Wunderground v.1.15,2013-01-13 14:05:00,
2013-01-13 09:15:00,44.6,43.8,30.01,ENE,71,0.0,1.0,97,0.00,,,0.00,Wunderground v.1.15,2013-01-13 14:15:00,
2013-01-13 09:25:00,44.9,44.1,30.01,ENE,71,0.0,1.0,97,0.00,,,0.00,Wunderground v.1.15,2013-01-13 14:25:00,
2013-01-13 09:35:00,45.1,44.3,30.01,ENE,71,0.0,0.0,97,0.00,,,0.00,Wunderground v.1.15,2013-01-13 14:35:00,
2013-01-13 09:40:00,45.4,44.6,30.01,ENE,71,0.0,0.0,97,0.00,,,0.00,Wunderground v.1.15,2013-01-13 14:40:00,
2013-01-13 09:50:00,45.8,45.0,30.01,ENE,72,0.0,0.0,97,0.00,,,0.00,Wunderground v.1.15,2013-01-13 14:50:00,
2013-01-13 10:00:00,46.4,45.6,30.01,ENE,72,0.0,1.0,97,0.00,,,0.00,Wunderground v.1.15,2013-01-13 15:00:00,
2013-01-13 10:05:00,47.0,46.2,30.00,ENE,72,0.0,1.0,97,0.00,,,0.00,Wunderground v.1.15,2013-01-13 15:05:00,
2013-01-13 10:15:00,47.6,46.8,30.01,ESE,123,0.0,0.0,97,0.00,,,0.00,Wunderground v.1.15,2013-01-13 15:15:00,
2013-01-13 10:25:00,47.3,46.5,30.01,ESE,123,0.0,0.0,97,0.00,,,0.00,Wunderground v.1.15,2013-01-13 15:25:00,
2013-01-13 10:30:00,47.4,46.6,30.00,ESE,123,0.0,0.0,97,0.00,,,0.00,Wunderground v.1.15,2013-01-13 15:30:00,
2013-01-13 10:40:00,48.1,47.3,30.00,East,91,0.0,1.0,97,0.00,,,0.00,Wunderground v.1.15,2013-01-13 15:40:00,
2013-01-13 10:50:00,48.5,47.7,30.00,East,92,0.0,1.0,97,0.00,,,0.00,Wunderground v.1.15,2013-01-13 15:50:00,
2013-01-13 11:00:00,48.8,48.0,29.99,East,92,0.0,1.0,97,0.00,,,0.00,Wunderground v.1.15,2013-01-13 16:00:00,
2013-01-13 11:05:00,49.4,48.6,29.99,East,92,0.0,1.0,97,0.00,,,0.00,Wunderground v.1.15,2013-01-13 16:05:00,
2013-01-13 11:15:00,49.9,49.1,29.98,East,88,0.0,1.0,97,0.00,,,0.00,Wunderground v.1.15,2013-01-13 16:15:00,
2013-01-13 11:25:00,50.6,49.5,29.98,SSE,151,0.0,0.0,96,0.00,,,0.00,Wunderground v.1.15,2013-01-13 16:25:00,
2013-01-13 11:30:00,51.0,49.6,29.98,SSE,151,0.0,0.0,95,0.00,,,0.00,Wunderground v.1.15,2013-01-13 16:30:00,
2013-01-13 11:40:00,51.5,49.5,29.96,ESE,112,0.0,3.0,93,0.00,,,0.00,Wunderground v.1.15,2013-01-13 16:40:00,
2013-01-13 11:50:00,52.3,49.8,29.96,East,101,1.0,1.0,91,0.00,,,0.00,Wunderground v.1.15,2013-01-13 16:50:00,
2013-01-13 12:00:00,53.4,50.5,29.95,East,84,1.0,1.0,90,0.00,,,0.00,Wunderground v.1.15,2013-01-13 17:00:00,
2013-01-13 12:05:00,53.7,50.5,29.95,NE,51,1.0,1.0,89,0.00,,,0.00,Wunderground v.1.15,2013-01-13 17:05:00,
2013-01-13 12:15:00,53.8,50.3,29.95,East,96,1.0,1.0,88,0.00,,,0.00,Wunderground v.1.15,2013-01-13 17:15:00,
2013-01-13 12:25:00,53.9,50.1,29.94,NE,43,1.0,2.0,87,0.00,,,0.00,Wunderground v.1.15,2013-01-13 17:25:00,
2013-01-13 12:35:00,53.9,50.4,29.94,NE,43,0.0,1.0,88,0.00,,,0.00,Wunderground v.1.15,2013-01-13 17:35:00,
2013-01-13 12:45:00,54.3,50.2,29.94,ENE,75,1.0,2.0,86,0.00,,,0.00,Wunderground v.1.15,2013-01-13 17:45:00,
2013-01-13 12:55:00,54.8,50.7,29.93,East,86,1.0,2.0,86,0.00,,,0.00,Wunderground v.1.15,2013-01-13 17:55:00,
2013-01-13 13:05:00,55.1,50.7,29.93,East,84,0.0,1.0,85,0.00,,,0.00,Wunderground v.1.15,2013-01-13 18:05:00,
2013-01-13 13:15:00,55.2,50.4,29.93,East,82,0.0,3.0,84,0.00,,,0.00,Wunderground v.1.15,2013-01-13 18:15:00,
2013-01-13 13:25:00,55.0,50.6,29.92,East,83,1.0,2.0,85,0.00,,,0.00,Wunderground v.1.15,2013-01-13 18:25:00,
2013-01-13 13:35:00,54.8,50.4,29.92,ENE,77,1.0,3.0,85,0.00,,,0.00,Wunderground v.1.15,2013-01-13 18:35:00,
2013-01-13 13:45:00,54.7,50.3,29.91,East,95,1.0,1.0,85,0.00,,,0.00,Wunderground v.1.15,2013-01-13 18:45:00,
2013-01-13 13:50:00,54.7,50.3,29.92,SE,125,1.0,1.0,85,0.00,,,0.00,Wunderground v.1.15,2013-01-13 18:50:00,
2013-01-13 14:00:00,54.6,50.2,29.92,SE,125,0.0,2.0,85,0.00,,,0.00,Wunderground v.1.15,2013-01-13 19:00:00,
2013-01-13 14:05:00,54.8,50.4,29.91,SE,125,1.0,2.0,85,0.00,,,0.00,Wunderground v.1.15,2013-01-13 19:05:00,
2013-01-13 14:15:00,55.0,50.6,29.91,East,100,1.0,3.0,85,0.00,,,0.00,Wunderground v.1.15,2013-01-13 19:15:00,
2013-01-13 14:25:00,55.0,50.6,29.91,East,80,1.0,1.0,85,0.00,,,0.00,Wunderground v.1.15,2013-01-13 19:25:00,
2013-01-13 14:35:00,54.9,50.5,29.91,East,80,0.0,1.0,85,0.00,,,0.00,Wunderground v.1.15,2013-01-13 19:35:00,
2013-01-13 14:45:00,55.2,50.8,29.91,SE,127,1.0,2.0,85,0.00,,,0.00,Wunderground v.1.15,2013-01-13 19:45:00,
2013-01-13 14:55:00,55.5,50.7,29.91,ENE,70,1.0,1.0,84,0.00,,,0.00,Wunderground v.1.15,2013-01-13 19:55:00,
2013-01-13 15:05:00,55.3,50.9,29.92,SE,130,1.0,1.0,85,0.00,,,0.00,Wunderground v.1.15,2013-01-13 20:05:00,
2013-01-13 15:15:00,55.4,50.6,29.91,East,100,0.0,1.0,84,0.00,,,0.00,Wunderground v.1.15,2013-01-13 20:15:00,
2013-01-13 15:25:00,55.3,50.5,29.92,East,100,0.0,0.0,84,0.00,,,0.00,Wunderground v.1.15,2013-01-13 20:25:00,
2013-01-13 15:35:00,55.3,50.5,29.92,East,100,0.0,0.0,84,0.00,,,0.00,Wunderground v.1.15,2013-01-13 20:35:00,
2013-01-13 15:40:00,55.4,50.6,29.92,East,100,0.0,0.0,84,0.00,,,0.00,Wunderground v.1.15,2013-01-13 20:40:00,
2013-01-13 15:50:00,55.3,50.5,29.92,East,100,0.0,0.0,84,0.00,,,0.00,Wunderground v.1.15,2013-01-13 20:50:00,
2013-01-13 16:00:00,55.2,50.4,29.92,East,100,0.0,0.0,84,0.00,,,0.00,Wunderground v.1.15,2013-01-13 21:00:00,
2013-01-13 16:05:00,55.1,50.4,29.92,East,100,0.0,0.0,84,0.00,,,0.00,Wunderground v.1.15,2013-01-13 21:05:00,
2013-01-13 16:15:00,55.0,50.6,29.92,East,100,0.0,0.0,85,0.00,,,0.00,Wunderground v.1.15,2013-01-13 21:15:00,
2013-01-13 16:25:00,55.0,50.6,29.93,East,100,0.0,0.0,85,0.00,,,0.00,Wunderground v.1.15,2013-01-13 21:25:00,
2013-01-13 16:35:00,54.9,50.5,29.92,East,100,0.0,0.0,85,0.00,,,0.00,Wunderground v.1.15,2013-01-13 21:35:00,
2013-01-13 16:40:00,54.8,50.4,29.92,East,100,0.0,0.0,85,0.00,,,0.00,Wunderground v.1.15,2013-01-13 21:40:00,
2013-01-13 16:50:00,54.8,50.4,29.92,East,100,0.0,0.0,85,0.00,,,0.00,Wunderground v.1.15,2013-01-13 21:50:00,
2013-01-13 17:00:00,54.7,50.3,29.92,East,100,0.0,0.0,85,0.00,,,0.00,Wunderground v.1.15,2013-01-13 22:00:00,
2013-01-13 17:05:00,54.6,50.2,29.92,East,100,0.0,0.0,85,0.00,,,0.00,Wunderground v.1.15,2013-01-13 22:05:00,
2013-01-13 17:15:00,54.5,50.4,29.92,East,100,0.0,0.0,86,0.00,,,0.00,Wunderground v.1.15,2013-01-13 22:15:00,
2013-01-13 17:25:00,54.3,50.2,29.92,East,100,0.0,0.0,86,0.00,,,0.00,Wunderground v.1.15,2013-01-13 22:25:00,
2013-01-13 17:35:00,54.2,50.4,29.91,East,100,0.0,0.0,87,0.00,,,0.00,Wunderground v.1.15,2013-01-13 22:35:00,
2013-01-13 17:45:00,54.0,50.2,29.91,East,100,0.0,0.0,87,0.00,,,0.00,Wunderground v.1.15,2013-01-13 22:45:00,
2013-01-13 17:55:00,53.9,50.1,29.91,East,100,0.0,1.0,87,0.00,,,0.00,Wunderground v.1.15,2013-01-13 22:55:00,
2013-01-13 18:05:00,53.7,49.9,29.92,East,100,0.0,0.0,87,0.00,,,0.00,Wunderground v.1.15,2013-01-13 23:05:00,
2013-01-13 18:15:00,53.5,50.0,29.92,East,100,0.0,0.0,88,0.00,,,0.00,Wunderground v.1.15,2013-01-13 23:15:00,
2013-01-13 18:25:00,53.5,50.3,29.92,East,100,0.0,1.0,89,0.00,,,0.00,Wunderground v.1.15,2013-01-13 23:25:00,
2013-01-13 18:30:00,53.5,50.0,29.92,East,100,0.0,0.0,88,0.00,,,0.00,Wunderground v.1.15,2013-01-13 23:30:00,
2013-01-13 18:40:00,53.2,49.7,29.92,East,100,0.0,0.0,88,0.00,,,0.00,Wunderground v.1.15,2013-01-13 23:40:00,
2013-01-13 18:50:00,53.0,49.5,29.92,East,100,0.0,0.0,88,0.00,,,0.00,Wunderground v.1.15,2013-01-13 23:50:00,
2013-01-13 19:00:00,52.9,49.7,29.92,East,100,0.0,0.0,89,0.00,,,0.00,Wunderground v.1.15,2013-01-14 00:00:00,
2013-01-13 19:05:00,52.8,49.6,29.92,East,100,0.0,0.0,89,0.00,,,0.00,Wunderground v.1.15,2013-01-14 00:05:00,
2013-01-13 19:15:00,52.9,49.7,29.92,East,100,0.0,0.0,89,0.00,,,0.00,Wunderground v.1.15,2013-01-14 00:15:00,
2013-01-13 19:20:00,52.9,49.7,29.92,East,100,0.0,0.0,89,0.00,,,0.00,Wunderground v.1.15,2013-01-14 00:20:00,
2013-01-13 19:30:00,53.0,49.8,29.91,East,100,0.0,0.0,89,0.00,,,0.00,Wunderground v.1.15,2013-01-14 00:30:00,
2013-01-13 19:40:00,53.1,49.9,29.90,East,100,0.0,0.0,89,0.00,,,0.00,Wunderground v.1.15,2013-01-14 00:40:00,
2013-01-13 19:45:00,53.1,49.9,29.90,East,101,0.0,0.0,89,0.00,,,0.00,Wunderground v.1.15,2013-01-14 00:45:00,
2013-01-13 19:55:00,53.3,50.1,29.90,East,100,0.0,0.0,89,0.00,,,0.00,Wunderground v.1.15,2013-01-14 00:55:00,
2013-01-13 20:05:00,53.3,50.1,29.90,East,100,0.0,0.0,89,0.00,,,0.00,Wunderground v.1.15,2013-01-14 01:05:00,
2013-01-13 20:20:00,53.3,50.1,29.89,East,100,0.0,0.0,89,0.00,,,0.00,Wunderground v.1.15,2013-01-14 01:20:00,
2013-01-13 20:30:00,53.3,50.1,29.90,East,100,0.0,0.0,89,0.00,,,0.00,Wunderground v.1.15,2013-01-14 01:30:00,
2013-01-13 20:40:00,53.2,50.0,29.90,East,100,0.0,0.0,89,0.00,,,0.00,Wunderground v.1.15,2013-01-14 01:40:00,
2013-01-13 20:50:00,53.1,49.9,29.89,East,100,0.0,0.0,89,0.00,,,0.00,Wunderground v.1.15,2013-01-14 01:50:00,
2013-01-13 21:00:00,53.0,49.8,29.90,East,100,0.0,0.0,89,0.00,,,0.00,Wunderground v.1.15,2013-01-14 02:00:00,
2013-01-13 21:05:00,52.8,49.6,29.90,East,100,0.0,0.0,89,0.00,,,0.00,Wunderground v.1.15,2013-01-14 02:05:00,
2013-01-13 21:15:00,52.8,49.6,29.89,East,100,0.0,0.0,89,0.00,,,0.00,Wunderground v.1.15,2013-01-14 02:15:00,
2013-01-13 21:25:00,52.8,49.6,29.89,East,100,0.0,0.0,89,0.00,,,0.00,Wunderground v.1.15,2013-01-14 02:25:00,
2013-01-13 21:35:00,52.8,49.9,29.89,East,100,0.0,0.0,90,0.00,,,0.00,Wunderground v.1.15,2013-01-14 02:35:00,
2013-01-13 21:40:00,52.8,49.9,29.89,East,100,0.0,0.0,90,0.00,,,0.00,Wunderground v.1.15,2013-01-14 02:40:00,
2013-01-13 21:50:00,52.9,50.0,29.89,East,100,0.0,0.0,90,0.00,,,0.00,Wunderground v.1.15,2013-01-14 02:50:00,
2013-01-13 22:00:00,52.9,50.0,29.89,East,100,0.0,0.0,90,0.00,,,0.00,Wunderground v.1.15,2013-01-14 03:00:00,
2013-01-13 22:05:00,53.0,50.1,29.88,East,100,0.0,0.0,90,0.00,,,0.00,Wunderground v.1.15,2013-01-14 03:05:00,
2013-01-13 22:15:00,53.1,50.5,29.88,East,100,0.0,0.0,91,0.00,,,0.00,Wunderground v.1.15,2013-01-14 03:15:00,
2013-01-13 22:25:00,53.3,50.7,29.88,East,100,0.0,0.0,91,0.00,,,0.00,Wunderground v.1.15,2013-01-14 03:25:00,
2013-01-13 22:30:00,53.4,50.8,29.88,East,100,0.0,0.0,91,0.00,,,0.00,Wunderground v.1.15,2013-01-14 03:30:00,
2013-01-13 22:40:00,53.2,50.3,29.88,East,100,0.0,0.0,90,0.00,,,0.00,Wunderground v.1.15,2013-01-14 03:40:00,
2013-01-13 22:50:00,53.0,50.1,29.88,East,100,0.0,0.0,90,0.00,,,0.00,Wunderground v.1.15,2013-01-14 03:50:00,
2013-01-13 23:00:00,52.8,49.9,29.88,East,100,0.0,0.0,90,0.00,,,0.00,Wunderground v.1.15,2013-01-14 04:00:00,
2013-01-13 23:05:00,52.8,49.9,29.88,East,100,0.0,1.0,90,0.00,,,0.00,Wunderground v.1.15,2013-01-14 04:05:00,
2013-01-13 23:15:00,52.6,50.0,29.88,East,100,0.0,0.0,91,0.00,,,0.00,Wunderground v.1.15,2013-01-14 04:15:00,
2013-01-13 23:25:00,52.6,50.0,29.88,East,100,0.0,0.0,91,0.00,,,0.00,Wunderground v.1.15,2013-01-14 04:25:00,
2013-01-13 23:35:00,52.6,50.3,29.88,East,100,0.0,0.0,92,0.00,,,0.00,Wunderground v.1.15,2013-01-14 04:35:00,
2013-01-13 23:45:00,52.8,50.5,29.88,East,100,0.0,0.0,92,0.00,,,0.00,Wunderground v.1.15,2013-01-14 04:45:00,
2013-01-13 23:55:00,53.0,50.4,29.89,East,100,0.0,0.0,91,0.00,,,0.00,Wunderground v.1.15,2013-01-14 04:55:00,